EST,Max TemperatureF,Mean TemperatureF,Min TemperatureF,Max Dew PointF,MeanDew PointF,Min DewpointF,Max Humidity, Mean Humidity, Min Humidity, Max Sea Level PressureIn, Mean Sea Level PressureIn, Min Sea Level PressureIn, Max VisibilityMiles, Mean VisibilityMiles, Min VisibilityMiles, Max Wind SpeedMPH, Mean Wind SpeedMPH, Max Gust SpeedMPH,PrecipitationIn, CloudCover, Events, WindDirDegrees
2013-1-1,33,17,1,25,12,-1,76,63,50,29.97,29.85,29.72,10,10,8,20,8,99,T,5,,278
2013-1-2,23,10,-4,16,4,-8,87,72,56,30.21,30.01,29.92,10,8,2,17,4,24,T,4,Snow,309
2013-1-3,17,2,-14,11,-2,-17,87,67,46,30.23,30.11,29.96,10,9,4,8,1,9,T,4,Snow,190
2013-1-4,35,26,18,21,18,13,86,66,52,29.96,29.90,29.84,10,8,4,14,4,68,0.00,8,Snow,273
2013-1-5,36,28,19,23,18,12,73,57,41,30.24,30.09,29.87,10,10,8,6,8,7,T,4,,256
2013-1-6,37,29,20,29,24,15,85,72,59,30.18,30.00,29.90,10,7,1,9,1,12,0.01,7,Snow,198
2013-1-7,36,23,9,30,20,7,92,78,63,30.38,30.22,29.98,10,9,6,7,5,9,0.00,6,,268
2013-1-8,41,25,9,24,16,6,92,67,41,30.38,30.32,30.27,10,8,4,6,1,21,0.00,0,,137
2013-1-9,45,30,14,30,20,10,92,69,45,30.37,30.22,29.99,10,7,2,24,5,33,0.00,2,,225
2013-1-10,42,32,22,30,22,18,75,58,41,30.55,30.39,30.12,10,10,2,29,8,43,0.02,3,Snow,292
2013-1-11,42,31,20,37,25,17,91,66,40,30.52,30.31,30.11,10,9,5,21,4,33,0.14,4,Rain,129
2013-1-12,51,42,34,41,37,33,100,88,68,30.14,30.11,30.08,10,8,0,6,2,,0.00,4,Fog,345
2013-1-13,58,46,34,48,40,34,100,86,72,30.13,30.03,29.92,10,5,0,14,2,20,0.00,6,Fog,208
2013-1-14,51,42,32,46,36,21,93,71,49,30.30,30.07,29.83,10,8,2,17,7,28,0.04,4,Rain,257
2013-1-15,34,30,25,23,21,19,81,69,56,30.35,30.28,30.22,10,10,10,8,1,13,0.00,4,,264
2013-1-16,31,29,27,29,27,21,92,84,75,30.21,29.93,29.79,10,3,0,6,0,8,0.22,8,Fog-Snow,83
2013-1-17,35,28,21,27,20,3,92,69,45,30.14,29.95,29.81,10,6,0,17,5,25,0.00,6,Fog,282
2013-1-18,23,16,8,5,-2,-7,63,48,33,30.40,30.30,30.09,10,10,10,15,5,21,0.00,3,,259
2013-1-19,45,34,23,22,16,6,47,42,37,30.25,30.02,29.79,10,10,10,12,5,16,0.00,6,,200
2013-1-20,45,33,21,31,18,4,65,51,37,29.99,29.74,29.52,10,9,2,24,12,41,0.01,5,Rain-Snow,264
2013-1-21,23,19,15,16,9,2,80,62,44,30.06,29.92,29.73,10,9,2,15,4,24,T,7,Snow,243
2013-1-22,20,14,8,15,2,-7,84,62,40,30.09,29.94,29.74,10,8,1,21,9,29,T,7,Snow,277
2013-1-23,10,5,-1,1,-8,-13,73,57,41,30.17,30.12,30.03,10,9,1,18,8,26,T,1,Snow,269
2013-1-24,15,4,-8,-6,-9,-13,82,60,38,30.35,30.23,30.14,10,10,9,18,6,31,0.00,0,,280
2013-1-25,14,7,-1,7,-2,-10,83,61,38,30.39,30.19,30.03,10,6,2,9,3,13,0.01,5,Snow,309
2013-1-26,18,10,1,7,1,-3,87,67,47,30.32,30.13,30.00,10,9,3,13,4,18,T,2,Snow,299
2013-1-27,24,12,-1,5,-1,-4,87,61,34,30.51,30.45,30.32,10,10,10,9,2,13,0.00,0,,256
2013-1-28,30,19,7,27,19,2,92,73,54,30.48,30.11,29.92,10,5,0,14,3,17,0.09,7,Fog-Rain-Snow,120
2013-1-29,41,35,28,36,29,25,92,84,76,30.14,30.03,29.94,10,5,1,18,2,26,0.14,8,Rain,82
2013-1-30,62,51,40,55,48,37,89,78,67,30.00,29.64,29.33,10,10,3,36,10,52,0.11,7,Rain,191
2013-1-31,59,42,24,54,36,11,93,70,47,29.62,29.21,28.92,10,7,2,30,14,53,0.66,8,Rain-Snow,261